sensor_id;sensor_type;location;lat;lon;timestamp;pressure;altitude;pressure_sealevel;temperature;humidity
67840;BME280;54636;51.684;5.142;2023-11-22T00:01:05;102805.91;;;2.91;100.00
67840;BME280;54636;51.684;5.142;2023-11-22T00:03:31;102798.97;;;2.86;100.00
67840;BME280;54636;51.684;5.142;2023-11-22T00:05:57;102799.34;;;2.85;100.00
67840;BME280;54636;51.684;5.142;2023-11-22T00:08:22;102797.81;;;2.80;100.00
67840;BME280;54636;51.684;5.142;2023-11-22T00:10:47;102801.97;;;2.71;100.00
67840;BME280;54636;51.684;5.142;2023-11-22T00:13:13;102797.75;;;2.66;100.00
67840;BME280;54636;51.684;5.142;2023-11-22T00:15:39;102812.31;;;2.65;100.00
67840;BME280;54636;51.684;5.142;2023-11-22T00:18:05;102814.97;;;2.58;100.00
67840;BME280;54636;51.684;5.142;2023-11-22T00:20:30;102811.16;;;2.59;100.00
67840;BME280;54636;51.684;5.142;2023-11-22T00:22:56;102809.59;;;2.58;100.00
67840;BME280;54636;51.684;5.142;2023-11-22T00:25:22;102811.47;;;2.50;100.00
67840;BME280;54636;51.684;5.142;2023-11-22T00:27:47;102814.09;;;2.40;100.00
67840;BME280;54636;51.684;5.142;2023-11-22T00:30:14;102775.97;;;2.06;100.00
67840;BME280;54636;51.684;5.142;2023-11-22T00:32:39;102808.97;;;2.17;100.00
67840;BME280;54636;51.684;5.142;2023-11-22T00:35:08;102815.47;;;2.12;100.00
67840;BME280;54636;51.684;5.142;2023-11-22T00:37:34;102818.88;;;2.09;100.00
67840;BME280;54636;51.684;5.142;2023-11-22T00:40:02;102804.63;;;1.98;100.00
67840;BME280;54636;51.684;5.142;2023-11-22T00:42:38;102808.88;;;2.03;100.00
67840;BME280;54636;51.684;5.142;2023-11-22T00:45:05;102816.91;;;2.03;100.00
67840;BME280;54636;51.684;5.142;2023-11-22T00:47:32;102813.84;;;2.01;100.00
67840;BME280;54636;51.684;5.142;2023-11-22T00:49:58;102816.88;;;1.95;100.00
67840;BME280;54636;51.684;5.142;2023-11-22T00:52:24;102807.56;;;1.79;100.00
67840;BME280;54636;51.684;5.142;2023-11-22T00:54:49;102814.94;;;1.96;100.00
67840;BME280;54636;51.684;5.142;2023-11-22T00:57:15;102813.81;;;1.93;100.00
67840;BME280;54636;51.684;5.142;2023-11-22T00:59:40;102815.31;;;1.91;100.00
67840;BME280;54636;51.684;5.142;2023-11-22T01:02:06;102809.16;;;1.87;100.00
67840;BME280;54636;51.684;5.142;2023-11-22T01:04:31;102820.69;;;1.91;100.00
67840;BME280;54636;51.684;5.142;2023-11-22T01:07:00;102817.19;;;1.83;100.00
67840;BME280;54636;51.684;5.142;2023-11-22T01:09:26;102817.09;;;1.73;100.00
67840;BME280;54636;51.684;5.142;2023-11-22T01:11:53;102821.69;;;1.76;100.00
67840;BME280;54636;51.684;5.142;2023-11-22T01:14:19;102841.28;;;1.83;100.00
67840;BME280;54636;51.684;5.142;2023-11-22T01:16:44;102850.81;;;1.77;100.00
67840;BME280;54636;51.684;5.142;2023-11-22T01:19:10;102862.66;;;1.76;100.00
67840;BME280;54636;51.684;5.142;2023-11-22T01:21:36;102873.72;;;1.71;100.00
67840;BME280;54636;51.684;5.142;2023-11-22T01:24:02;102871.78;;;1.68;100.00
67840;BME280;54636;51.684;5.142;2023-11-22T01:26:27;102891.28;;;1.69;100.00
67840;BME280;54636;51.684;5.142;2023-11-22T01:28:53;102888.56;;;1.65;100.00
67840;BME280;54636;51.684;5.142;2023-11-22T01:31:18;102889.69;;;1.60;100.00
67840;BME280;54636;51.684;5.142;2023-11-22T01:33:46;102891.19;;;1.58;100.00
67840;BME280;54636;51.684;5.142;2023-11-22T01:36:13;102894.63;;;1.58;100.00
67840;BME280;54636;51.684;5.142;2023-11-22T01:38:40;102892.38;;;1.64;100.00
67840;BME280;54636;51.684;5.142;2023-11-22T01:41:05;102882.00;;;1.59;100.00
67840;BME280;54636;51.684;5.142;2023-11-22T01:43:31;102889.72;;;1.64;100.00
67840;BME280;54636;51.684;5.142;2023-11-22T01:45:56;102895.44;;;1.62;100.00
67840;BME280;54636;51.684;5.142;2023-11-22T01:48:22;102871.09;;;1.41;100.00
67840;BME280;54636;51.684;5.142;2023-11-22T01:50:48;102902.34;;;1.63;100.00
67840;BME280;54636;51.684;5.142;2023-11-22T01:53:14;102906.56;;;1.64;100.00
67840;BME280;54636;51.684;5.142;2023-11-22T01:55:42;102911.91;;;1.64;100.00
67840;BME280;54636;51.684;5.142;2023-11-22T01:58:08;102896.94;;;1.60;100.00
67840;BME280;54636;51.684;5.142;2023-11-22T02:00:43;102898.53;;;1.64;100.00
67840;BME280;54636;51.684;5.142;2023-11-22T02:03:10;102896.16;;;1.59;100.00
67840;BME280;54636;51.684;5.142;2023-11-22T02:05:35;102899.19;;;1.54;100.00
67840;BME280;54636;51.684;5.142;2023-11-22T02:08:01;102894.47;;;1.44;100.00
67840;BME280;54636;51.684;5.142;2023-11-22T02:10:26;102895.59;;;1.43;100.00
67840;BME280;54636;51.684;5.142;2023-11-22T02:12:52;102894.00;;;1.35;100.00
67840;BME280;54636;51.684;5.142;2023-11-22T02:15:17;102903.09;;;1.27;100.00
67840;BME280;54636;51.684;5.142;2023-11-22T02:17:43;102880.66;;;1.05;100.00
67840;BME280;54636;51.684;5.142;2023-11-22T02:20:10;102889.84;;;1.08;100.00
67840;BME280;54636;51.684;5.142;2023-11-22T02:22:43;102889.78;;;1.01;100.00
67840;BME280;54636;51.684;5.142;2023-11-22T02:25:09;102915.41;;;1.02;100.00
67840;BME280;54636;51.684;5.142;2023-11-22T02:27:35;102917.66;;;0.99;100.00
67840;BME280;54636;51.684;5.142;2023-11-22T02:30:02;102913.41;;;0.95;100.00
67840;BME280;54636;51.684;5.142;2023-11-22T02:32:31;102904.03;;;0.82;100.00
67840;BME280;54636;51.684;5.142;2023-11-22T02:34:56;102925.53;;;0.89;100.00
67840;BME280;54636;51.684;5.142;2023-11-22T02:37:21;102906.22;;;0.73;100.00
67840;BME280;54636;51.684;5.142;2023-11-22T02:40:16;102914.75;;;0.82;100.00
67840;BME280;54636;51.684;5.142;2023-11-22T02:42:43;102904.34;;;0.77;100.00
67840;BME280;54636;51.684;5.142;2023-11-22T02:45:09;102908.88;;;0.73;100.00
67840;BME280;54636;51.684;5.142;2023-11-22T02:47:34;102901.56;;;0.70;100.00
67840;BME280;54636;51.684;5.142;2023-11-22T02:50:02;102894.28;;;0.66;100.00
67840;BME280;54636;51.684;5.142;2023-11-22T02:52:27;102893.50;;;0.66;100.00
67840;BME280;54636;51.684;5.142;2023-11-22T02:54:53;102883.75;;;0.51;100.00
67840;BME280;54636;51.684;5.142;2023-11-22T02:57:18;102897.22;;;0.58;100.00
67840;BME280;54636;51.684;5.142;2023-11-22T02:59:44;102906.44;;;0.60;100.00
67840;BME280;54636;51.684;5.142;2023-11-22T03:02:10;102891.00;;;0.50;100.00
67840;BME280;54636;51.684;5.142;2023-11-22T03:04:36;102896.78;;;0.52;100.00
67840;BME280;54636;51.684;5.142;2023-11-22T03:07:02;102894.34;;;0.44;100.00
67840;BME280;54636;51.684;5.142;2023-11-22T03:09:27;102888.59;;;0.42;100.00
67840;BME280;54636;51.684;5.142;2023-11-22T03:11:54;102887.88;;;0.45;100.00
67840;BME280;54636;51.684;5.142;2023-11-22T03:14:20;102898.97;;;0.47;100.00
67840;BME280;54636;51.684;5.142;2023-11-22T03:16:45;102904.69;;;0.45;100.00
67840;BME280;54636;51.684;5.142;2023-11-22T03:19:10;102895.41;;;0.39;100.00
67840;BME280;54636;51.684;5.142;2023-11-22T03:21:38;102896.09;;;0.32;100.00
67840;BME280;54636;51.684;5.142;2023-11-22T03:24:04;102886.06;;;0.26;100.00
67840;BME280;54636;51.684;5.142;2023-11-22T03:26:30;102912.88;;;0.33;100.00
67840;BME280;54636;51.684;5.142;2023-11-22T03:28:55;102909.81;;;0.31;100.00
67840;BME280;54636;51.684;5.142;2023-11-22T03:31:20;102918.91;;;0.26;100.00
67840;BME280;54636;51.684;5.142;2023-11-22T03:33:46;102920.38;;;0.24;100.00
67840;BME280;54636;51.684;5.142;2023-11-22T03:36:12;102906.84;;;0.13;100.00
67840;BME280;54636;51.684;5.142;2023-11-22T03:38:39;102921.88;;;0.21;100.00
67840;BME280;54636;51.684;5.142;2023-11-22T03:41:05;102919.78;;;0.11;100.00
67840;BME280;54636;51.684;5.142;2023-11-22T03:43:30;102920.09;;;0.06;100.00
67840;BME280;54636;51.684;5.142;2023-11-22T03:45:56;102949.66;;;0.17;100.00
67840;BME280;54636;51.684;5.142;2023-11-22T03:48:21;102943.00;;;0.07;100.00
67840;BME280;54636;51.684;5.142;2023-11-22T03:50:48;102967.59;;;0.16;100.00
67840;BME280;54636;51.684;5.142;2023-11-22T03:53:14;102962.97;;;0.13;100.00
67840;BME280;54636;51.684;5.142;2023-11-22T03:55:39;102981.84;;;0.24;100.00
67840;BME280;54636;51.684;5.142;2023-11-22T03:58:05;102987.31;;;0.31;100.00
67840;BME280;54636;51.684;5.142;2023-11-22T04:00:30;102985.06;;;0.33;100.00
67840;BME280;54636;51.684;5.142;2023-11-22T04:02:57;102986.97;;;0.32;100.00
67840;BME280;54636;51.684;5.142;2023-11-22T04:05:25;102974.59;;;0.24;100.00
67840;BME280;54636;51.684;5.142;2023-11-22T04:07:51;102981.50;;;0.25;100.00
67840;BME280;54636;51.684;5.142;2023-11-22T04:10:16;102990.41;;;0.33;100.00
67840;BME280;54636;51.684;5.142;2023-11-22T04:12:42;102992.66;;;0.31;100.00
67840;BME280;54636;51.684;5.142;2023-11-22T04:15:08;102995.69;;;0.29;100.00
67840;BME280;54636;51.684;5.142;2023-11-22T04:17:36;102982.78;;;0.12;100.00
67840;BME280;54636;51.684;5.142;2023-11-22T04:20:08;102997.53;;;0.25;100.00
67840;BME280;54636;51.684;5.142;2023-11-22T04:22:39;103005.56;;;0.25;100.00
67840;BME280;54636;51.684;5.142;2023-11-22T04:25:05;103002.81;;;0.22;100.00
67840;BME280;54636;51.684;5.142;2023-11-22T04:27:31;102994.78;;;0.22;100.00
67840;BME280;54636;51.684;5.142;2023-11-22T04:29:57;103012.03;;;0.24;100.00
67840;BME280;54636;51.684;5.142;2023-11-22T04:32:22;102996.22;;;0.16;100.00
67840;BME280;54636;51.684;5.142;2023-11-22T04:34:47;103010.00;;;0.18;100.00
67840;BME280;54636;51.684;5.142;2023-11-22T04:37:13;103024.25;;;0.25;100.00
67840;BME280;54636;51.684;5.142;2023-11-22T04:39:38;103024.25;;;0.25;100.00
67840;BME280;54636;51.684;5.142;2023-11-22T04:42:04;103019.69;;;0.26;100.00
67840;BME280;54636;51.684;5.142;2023-11-22T04:44:30;103019.69;;;0.26;100.00
67840;BME280;54636;51.684;5.142;2023-11-22T04:46:57;103019.34;;;0.27;100.00
67840;BME280;54636;51.684;5.142;2023-11-22T04:49:24;103011.31;;;0.27;100.00
67840;BME280;54636;51.684;5.142;2023-11-22T04:51:50;103015.47;;;0.25;100.00
67840;BME280;54636;51.684;5.142;2023-11-22T04:54:15;102999.72;;;0.20;100.00
67840;BME280;54636;51.684;5.142;2023-11-22T04:56:41;103027.91;;;0.37;100.00
67840;BME280;54636;51.684;5.142;2023-11-22T04:59:06;103025.63;;;0.39;100.00
67840;BME280;54636;51.684;5.142;2023-11-22T05:01:33;103024.56;;;0.43;100.00
67840;BME280;54636;51.684;5.142;2023-11-22T05:03:58;103022.31;;;0.45;100.00
67840;BME280;54636;51.684;5.142;2023-11-22T05:06:24;103015.50;;;0.48;100.00
67840;BME280;54636;51.684;5.142;2023-11-22T05:08:51;103016.63;;;0.47;100.00
67840;BME280;54636;51.684;5.142;2023-11-22T05:11:17;103012.81;;;0.48;100.00
67840;BME280;54636;51.684;5.142;2023-11-22T05:13:42;103024.75;;;0.54;100.00
67840;BME280;54636;51.684;5.142;2023-11-22T05:16:10;103015.25;;;0.56;100.00
67840;BME280;54636;51.684;5.142;2023-11-22T05:18:36;102988.81;;;0.51;100.00
67840;BME280;54636;51.684;5.142;2023-11-22T05:21:04;102999.63;;;0.58;100.00
67840;BME280;54636;51.684;5.142;2023-11-22T05:23:30;102996.84;;;0.51;100.00
67840;BME280;54636;51.684;5.142;2023-11-22T05:25:57;102999.22;;;0.56;100.00
67840;BME280;54636;51.684;5.142;2023-11-22T05:28:25;102999.25;;;0.60;100.00
67840;BME280;54636;51.684;5.142;2023-11-22T05:30:50;103015.09;;;0.72;100.00
67840;BME280;54636;51.684;5.142;2023-11-22T05:33:15;103015.09;;;0.72;100.00
67840;BME280;54636;51.684;5.142;2023-11-22T05:35:41;103014.38;;;0.75;100.00
67840;BME280;54636;51.684;5.142;2023-11-22T05:38:07;103016.34;;;0.78;100.00
67840;BME280;54636;51.684;5.142;2023-11-22T05:40:33;102974.91;;;0.65;100.00
67840;BME280;54636;51.684;5.142;2023-11-22T05:42:58;103004.94;;;0.81;100.00
67840;BME280;54636;51.684;5.142;2023-11-22T05:45:23;103012.06;;;0.74;100.00
67840;BME280;54636;51.684;5.142;2023-11-22T05:47:50;103023.19;;;0.76;100.00
67840;BME280;54636;51.684;5.142;2023-11-22T05:50:15;103039.00;;;0.84;100.00
67840;BME280;54636;51.684;5.142;2023-11-22T05:52:41;103026.63;;;0.76;100.00
67840;BME280;54636;51.684;5.142;2023-11-22T05:55:07;103036.63;;;0.79;100.00
67840;BME280;54636;51.684;5.142;2023-11-22T05:57:33;103044.75;;;0.86;100.00
67840;BME280;54636;51.684;5.142;2023-11-22T05:59:59;103031.25;;;0.79;100.00
67840;BME280;54636;51.684;5.142;2023-11-22T06:02:24;103036.00;;;0.89;100.00
67840;BME280;54636;51.684;5.142;2023-11-22T06:04:49;103046.72;;;0.89;100.00
67840;BME280;54636;51.684;5.142;2023-11-22T06:07:15;103046.34;;;0.91;100.00
67840;BME280;54636;51.684;5.142;2023-11-22T06:09:40;103055.16;;;0.91;100.00
67840;BME280;54636;51.684;5.142;2023-11-22T06:12:06;103056.69;;;0.92;100.00
67840;BME280;54636;51.684;5.142;2023-11-22T06:14:31;103059.78;;;0.94;100.00
67840;BME280;54636;51.684;5.142;2023-11-22T06:16:57;103073.16;;;0.94;100.00
67840;BME280;54636;51.684;5.142;2023-11-22T06:19:22;103067.03;;;0.94;100.00
67840;BME280;54636;51.684;5.142;2023-11-22T06:21:48;103054.84;;;0.96;100.00
67840;BME280;54636;51.684;5.142;2023-11-22T06:24:13;103055.09;;;0.88;100.00
67840;BME280;54636;51.684;5.142;2023-11-22T06:26:44;103054.69;;;0.86;100.00
67840;BME280;54636;51.684;5.142;2023-11-22T06:29:11;103065.56;;;0.96;100.00
67840;BME280;54636;51.684;5.142;2023-11-22T06:31:36;103073.59;;;0.96;100.00
67840;BME280;54636;51.684;5.142;2023-11-22T06:34:02;103068.22;;;0.96;100.00
67840;BME280;54636;51.684;5.142;2023-11-22T06:36:28;103075.47;;;0.96;100.00
67840;BME280;54636;51.684;5.142;2023-11-22T06:38:54;103077.38;;;0.95;100.00
67840;BME280;54636;51.684;5.142;2023-11-22T06:41:20;103085.84;;;0.97;100.00
67840;BME280;54636;51.684;5.142;2023-11-22T06:43:47;103086.25;;;0.99;100.00
67840;BME280;54636;51.684;5.142;2023-11-22T06:46:12;103073.22;;;0.98;100.00
67840;BME280;54636;51.684;5.142;2023-11-22T06:48:37;103072.88;;;0.99;100.00
67840;BME280;54636;51.684;5.142;2023-11-22T06:51:03;103037.91;;;0.89;100.00
67840;BME280;54636;51.684;5.142;2023-11-22T06:53:28;103040.66;;;0.92;100.00
67840;BME280;54636;51.684;5.142;2023-11-22T06:55:53;103058.34;;;1.01;100.00
67840;BME280;54636;51.684;5.142;2023-11-22T06:58:19;103051.09;;;1.01;100.00
67840;BME280;54636;51.684;5.142;2023-11-22T07:00:44;103035.72;;;0.94;100.00
67840;BME280;54636;51.684;5.142;2023-11-22T07:03:10;103050.78;;;1.06;100.00
67840;BME280;54636;51.684;5.142;2023-11-22T07:05:36;103046.56;;;1.05;100.00
67840;BME280;54636;51.684;5.142;2023-11-22T07:08:02;103051.25;;;1.12;100.00
67840;BME280;54636;51.684;5.142;2023-11-22T07:10:28;103055.47;;;1.13;100.00
67840;BME280;54636;51.684;5.142;2023-11-22T07:12:54;103050.19;;;1.16;100.00
67840;BME280;54636;51.684;5.142;2023-11-22T07:15:19;103050.59;;;1.18;100.00
67840;BME280;54636;51.684;5.142;2023-11-22T07:17:44;103055.59;;;1.20;100.00
67840;BME280;54636;51.684;5.142;2023-11-22T07:20:10;103064.75;;;1.19;100.00
67840;BME280;54636;51.684;5.142;2023-11-22T07:22:42;103049.34;;;1.12;100.00
67840;BME280;54636;51.684;5.142;2023-11-22T07:25:08;103061.34;;;1.22;100.00
67840;BME280;54636;51.684;5.142;2023-11-22T07:27:44;103061.78;;;1.24;100.00
67840;BME280;54636;51.684;5.142;2023-11-22T07:30:09;103048.78;;;1.26;100.00
67840;BME280;54636;51.684;5.142;2023-11-22T07:32:38;103051.06;;;1.24;100.00
67840;BME280;54636;51.684;5.142;2023-11-22T07:35:05;103059.28;;;1.38;100.00
67840;BME280;54636;51.684;5.142;2023-11-22T07:37:30;103040.34;;;1.24;100.00
67840;BME280;54636;51.684;5.142;2023-11-22T07:39:56;103055.16;;;1.44;100.00
67840;BME280;54636;51.684;5.142;2023-11-22T07:42:22;103057.78;;;1.41;100.00
67840;BME280;54636;51.684;5.142;2023-11-22T07:44:48;103058.53;;;1.41;100.00
67840;BME280;54636;51.684;5.142;2023-11-22T07:47:15;103060.81;;;1.39;100.00
67840;BME280;54636;51.684;5.142;2023-11-22T07:49:41;103079.88;;;1.34;100.00
67840;BME280;54636;51.684;5.142;2023-11-22T07:52:07;103089.84;;;1.37;100.00
67840;BME280;54636;51.684;5.142;2023-11-22T07:54:32;103081.34;;;1.31;100.00
67840;BME280;54636;51.684;5.142;2023-11-22T07:56:57;103091.63;;;1.26;100.00
67840;BME280;54636;51.684;5.142;2023-11-22T07:59:23;103075.09;;;1.20;100.00
67840;BME280;54636;51.684;5.142;2023-11-22T08:01:48;103098.56;;;1.30;100.00
67840;BME280;54636;51.684;5.142;2023-11-22T08:04:14;103116.31;;;1.42;100.00
67840;BME280;54636;51.684;5.142;2023-11-22T08:06:41;103110.66;;;1.47;100.00
67840;BME280;54636;51.684;5.142;2023-11-22T08:09:07;103080.69;;;1.38;100.00
67840;BME280;54636;51.684;5.142;2023-11-22T08:11:34;103091.59;;;1.52;100.00
67840;BME280;54636;51.684;5.142;2023-11-22T08:14:00;103103.34;;;1.71;100.00
67840;BME280;54636;51.684;5.142;2023-11-22T08:16:26;103103.03;;;1.76;100.00
67840;BME280;54636;51.684;5.142;2023-11-22T08:22:03;103118.06;;;1.84;100.00
67840;BME280;54636;51.684;5.142;2023-11-22T08:24:29;103068.53;;;1.44;100.00
67840;BME280;54636;51.684;5.142;2023-11-22T08:26:54;103103.03;;;1.76;100.00
67840;BME280;54636;51.684;5.142;2023-11-22T08:29:19;103070.59;;;1.54;100.00
67840;BME280;54636;51.684;5.142;2023-11-22T08:31:45;103126.25;;;1.94;100.00
67840;BME280;54636;51.684;5.142;2023-11-22T08:34:10;103078.41;;;1.67;100.00
67840;BME280;54636;51.684;5.142;2023-11-22T08:36:36;103068.81;;;1.65;100.00
67840;BME280;54636;51.684;5.142;2023-11-22T08:39:02;103106.66;;;1.90;100.00
67840;BME280;54636;51.684;5.142;2023-11-22T08:41:29;103118.97;;;1.98;100.00
67840;BME280;54636;51.684;5.142;2023-11-22T08:43:56;103108.19;;;1.91;100.00
67840;BME280;54636;51.684;5.142;2023-11-22T08:46:22;103121.31;;;2.00;100.00
67840;BME280;54636;51.684;5.142;2023-11-22T08:48:49;103139.88;;;2.16;100.00
67840;BME280;54636;51.684;5.142;2023-11-22T08:51:15;103135.25;;;2.13;100.00
67840;BME280;54636;51.684;5.142;2023-11-22T08:53:40;103158.78;;;2.26;100.00
67840;BME280;54636;51.684;5.142;2023-11-22T08:56:06;103138.38;;;2.18;100.00
67840;BME280;54636;51.684;5.142;2023-11-22T08:58:34;103131.22;;;2.29;100.00
67840;BME280;54636;51.684;5.142;2023-11-22T09:00:59;103119.41;;;2.34;100.00
67840;BME280;54636;51.684;5.142;2023-11-22T09:03:24;103139.56;;;2.54;100.00
67840;BME280;54636;51.684;5.142;2023-11-22T09:05:50;103141.13;;;2.62;100.00
67840;BME280;54636;51.684;5.142;2023-11-22T09:08:15;103144.66;;;2.70;100.00
67840;BME280;54636;51.684;5.142;2023-11-22T09:10:41;103131.53;;;2.58;100.00
67840;BME280;54636;51.684;5.142;2023-11-22T09:13:08;103138.16;;;2.71;100.00
67840;BME280;54636;51.684;5.142;2023-11-22T09:15:34;103145.16;;;2.79;100.00
67840;BME280;54636;51.684;5.142;2023-11-22T09:18:00;103148.66;;;2.87;100.00
67840;BME280;54636;51.684;5.142;2023-11-22T09:20:26;103151.38;;;2.90;100.00
67840;BME280;54636;51.684;5.142;2023-11-22T09:22:54;103138.63;;;2.80;100.00
67840;BME280;54636;51.684;5.142;2023-11-22T09:25:23;103164.09;;;2.97;100.00
67840;BME280;54636;51.684;5.142;2023-11-22T09:27:51;103147.16;;;2.89;100.00
67840;BME280;54636;51.684;5.142;2023-11-22T09:30:19;103135.72;;;2.96;100.00
67840;BME280;54636;51.684;5.142;2023-11-22T09:32:58;103138.38;;;2.92;100.00
67840;BME280;54636;51.684;5.142;2023-11-22T09:35:24;103156.47;;;3.03;100.00
67840;BME280;54636;51.684;5.142;2023-11-22T09:37:50;103149.13;;;2.96;100.00
67840;BME280;54636;51.684;5.142;2023-11-22T09:40:21;103153.72;;;2.95;100.00
67840;BME280;54636;51.684;5.142;2023-11-22T09:42:48;103163.81;;;3.09;100.00
67840;BME280;54636;51.684;5.142;2023-11-22T09:45:17;103150.38;;;3.06;100.00
67840;BME280;54636;51.684;5.142;2023-11-22T09:47:46;103160.47;;;3.19;100.00
67840;BME280;54636;51.684;5.142;2023-11-22T09:50:29;103163.97;;;3.30;100.00
67840;BME280;54636;51.684;5.142;2023-11-22T09:53:00;103157.50;;;3.35;100.00
67840;BME280;54636;51.684;5.142;2023-11-22T09:55:28;103159.84;;;3.40;100.00
67840;BME280;54636;51.684;5.142;2023-11-22T09:57:58;103165.63;;;3.46;100.00
67840;BME280;54636;51.684;5.142;2023-11-22T10:00:26;103146.81;;;3.46;100.00
67840;BME280;54636;51.684;5.142;2023-11-22T10:02:53;103158.47;;;3.64;100.00
67840;BME280;54636;51.684;5.142;2023-11-22T10:05:19;103149.22;;;3.61;100.00
67840;BME280;54636;51.684;5.142;2023-11-22T10:07:46;103141.19;;;3.65;100.00
67840;BME280;54636;51.684;5.142;2023-11-22T10:10:16;103161.66;;;3.84;100.00
67840;BME280;54636;51.684;5.142;2023-11-22T10:12:43;103158.25;;;3.97;100.00
67840;BME280;54636;51.684;5.142;2023-11-22T10:15:16;103147.44;;;3.90;100.00
67840;BME280;54636;51.684;5.142;2023-11-22T10:17:59;103146.34;;;3.98;100.00
67840;BME280;54636;51.684;5.142;2023-11-22T10:20:38;103170.59;;;4.13;100.00
67840;BME280;54636;51.684;5.142;2023-11-22T10:23:08;103161.31;;;3.96;100.00
67840;BME280;54636;51.684;5.142;2023-11-22T10:25:34;103163.66;;;4.08;100.00
67840;BME280;54636;51.684;5.142;2023-11-22T10:27:59;103153.28;;;4.03;100.00
67840;BME280;54636;51.684;5.142;2023-11-22T10:30:27;103127.13;;;3.96;100.00
67840;BME280;54636;51.684;5.142;2023-11-22T10:32:53;103138.72;;;4.15;100.00
67840;BME280;54636;51.684;5.142;2023-11-22T10:35:20;103130.66;;;4.15;100.00
67840;BME280;54636;51.684;5.142;2023-11-22T10:37:48;103145.63;;;4.12;100.00
67840;BME280;54636;51.684;5.142;2023-11-22T10:40:14;103130.22;;;4.06;100.00
67840;BME280;54636;51.684;5.142;2023-11-22T10:42:41;103137.22;;;4.21;100.00
67840;BME280;54636;51.684;5.142;2023-11-22T10:45:12;103115.66;;;4.14;100.00
67840;BME280;54636;51.684;5.142;2023-11-22T10:47:39;103144.56;;;4.31;100.00
67840;BME280;54636;51.684;5.142;2023-11-22T10:50:07;103118.75;;;4.19;100.00
67840;BME280;54636;51.684;5.142;2023-11-22T10:52:35;103130.31;;;4.30;100.00
67840;BME280;54636;51.684;5.142;2023-11-22T10:55:04;103114.59;;;4.40;100.00
67840;BME280;54636;51.684;5.142;2023-11-22T10:57:32;103119.97;;;4.40;100.00
67840;BME280;54636;51.684;5.142;2023-11-22T11:00:02;103095.38;;;4.34;100.00
67840;BME280;54636;51.684;5.142;2023-11-22T11:02:33;103091.91;;;4.41;100.00
67840;BME280;54636;51.684;5.142;2023-11-22T11:05:07;103103.47;;;4.52;100.00
67840;BME280;54636;51.684;5.142;2023-11-22T11:07:40;103096.94;;;4.46;100.00
67840;BME280;54636;51.684;5.142;2023-11-22T11:10:07;103109.22;;;4.57;100.00
67840;BME280;54636;51.684;5.142;2023-11-22T11:12:33;103104.25;;;4.70;100.00
67840;BME280;54636;51.684;5.142;2023-11-22T11:14:59;103102.31;;;4.78;100.00
67840;BME280;54636;51.684;5.142;2023-11-22T11:17:25;103079.63;;;4.57;100.00
67840;BME280;54636;51.684;5.142;2023-11-22T11:19:50;103085.41;;;4.67;100.00
67840;BME280;54636;51.684;5.142;2023-11-22T11:22:16;103083.84;;;4.62;100.00
67840;BME280;54636;51.684;5.142;2023-11-22T11:24:47;103088.09;;;4.70;100.00
67840;BME280;54636;51.684;5.142;2023-11-22T11:27:13;103087.31;;;4.73;100.00
67840;BME280;54636;51.684;5.142;2023-11-22T11:29:38;103073.88;;;4.73;100.00
67840;BME280;54636;51.684;5.142;2023-11-22T11:32:16;103062.72;;;4.75;100.00
67840;BME280;54636;51.684;5.142;2023-11-22T11:34:56;103057.31;;;4.89;100.00
67840;BME280;54636;51.684;5.142;2023-11-22T11:37:21;103040.41;;;4.92;100.00
67840;BME280;54636;51.684;5.142;2023-11-22T11:39:46;103039.25;;;4.96;100.00
67840;BME280;54636;51.684;5.142;2023-11-22T11:42:13;103045.78;;;5.03;100.00
67840;BME280;54636;51.684;5.142;2023-11-22T11:44:51;103038.09;;;5.01;100.00
67840;BME280;54636;51.684;5.142;2023-11-22T11:47:27;103025.78;;;4.96;100.00
67840;BME280;54636;51.684;5.142;2023-11-22T11:49:55;103018.09;;;4.95;100.00
67840;BME280;54636;51.684;5.142;2023-11-22T11:52:21;103025.00;;;5.00;100.00
67840;BME280;54636;51.684;5.142;2023-11-22T11:54:46;103024.25;;;4.95;100.00
67840;BME280;54636;51.684;5.142;2023-11-22T11:57:12;103009.63;;;4.89;100.00
67840;BME280;54636;51.684;5.142;2023-11-22T11:59:37;102966.56;;;4.64;100.00
67840;BME280;54636;51.684;5.142;2023-11-22T12:02:03;103023.47;;;4.99;100.00
67840;BME280;54636;51.684;5.142;2023-11-22T12:04:31;103017.69;;;4.96;100.00
67840;BME280;54636;51.684;5.142;2023-11-22T12:06:57;102988.47;;;4.70;100.00
67840;BME280;54636;51.684;5.142;2023-11-22T12:09:26;103022.69;;;4.91;100.00
67840;BME280;54636;51.684;5.142;2023-11-22T12:11:51;102997.72;;;4.73;100.00
67840;BME280;54636;51.684;5.142;2023-11-22T12:14:20;103015.41;;;4.77;100.00
67840;BME280;54636;51.684;5.142;2023-11-22T12:16:46;103013.47;;;4.81;100.00
67840;BME280;54636;51.684;5.142;2023-11-22T12:19:24;103002.72;;;4.67;100.00
67840;BME280;54636;51.684;5.142;2023-11-22T12:21:51;102999.25;;;4.67;100.00
67840;BME280;54636;51.684;5.142;2023-11-22T12:24:17;103011.94;;;4.66;100.00
67840;BME280;54636;51.684;5.142;2023-11-22T12:26:46;103024.63;;;4.76;100.00
67840;BME280;54636;51.684;5.142;2023-11-22T12:29:13;103024.63;;;4.73;100.00
67840;BME280;54636;51.684;5.142;2023-11-22T12:31:50;103026.94;;;4.81;100.00
67840;BME280;54636;51.684;5.142;2023-11-22T12:34:18;103018.47;;;4.79;100.00
67840;BME280;54636;51.684;5.142;2023-11-22T12:36:45;103036.94;;;4.88;100.00
67840;BME280;54636;51.684;5.142;2023-11-22T12:39:12;103017.31;;;4.87;100.00
67840;BME280;54636;51.684;5.142;2023-11-22T12:41:43;103012.69;;;4.88;100.00
67840;BME280;54636;51.684;5.142;2023-11-22T12:44:11;103021.91;;;5.01;100.00
67840;BME280;54636;51.684;5.142;2023-11-22T12:46:51;103023.06;;;5.07;100.00
67840;BME280;54636;51.684;5.142;2023-11-22T12:49:23;103011.91;;;5.12;100.00
67840;BME280;54636;51.684;5.142;2023-11-22T12:51:50;103014.13;;;5.28;100.00